createdAt,value
2022-12-03T00:01:15.988Z,99045.02
2022-12-03T00:07:59.294Z,99047.30
2022-12-03T00:14:47.315Z,99057.98
2022-12-03T00:21:31.085Z,99048.74
2022-12-03T00:28:17.618Z,99049.83
2022-12-03T00:35:04.581Z,99045.92
2022-12-03T00:41:47.868Z,99037.52
2022-12-03T00:48:38.714Z,99032.84
2022-12-03T00:55:21.969Z,99030.54
2022-12-03T01:02:05.418Z,99029.56
2022-12-03T01:08:49.130Z,99032.64
2022-12-03T01:15:34.236Z,99035.45
2022-12-03T01:22:17.784Z,99031.25
2022-12-03T01:29:03.239Z,99011.70
2022-12-03T01:35:47.949Z,99014.09
2022-12-03T01:42:31.475Z,99012.58
2022-12-03T01:49:16.539Z,99022.46
2022-12-03T01:55:59.645Z,99032.33
2022-12-03T02:02:48.528Z,99017.81
2022-12-03T02:09:32.783Z,99012.08
2022-12-03T02:16:18.206Z,99021.17
2022-12-03T02:23:19.282Z,99031.08
2022-12-03T02:30:03.936Z,99029.75
2022-12-03T02:36:48.063Z,99037.39
2022-12-03T02:43:34.371Z,99027.02
2022-12-03T02:50:17.912Z,99019.63
2022-12-03T02:57:08.635Z,99017.89
2022-12-03T03:03:53.948Z,99014.38
2022-12-03T03:10:36.880Z,99010.91
2022-12-03T03:17:29.172Z,99014.64
2022-12-03T03:24:29.004Z,99016.83
2022-12-03T03:31:12.477Z,99017.23
2022-12-03T03:38:01.339Z,99014.23
2022-12-03T03:44:47.504Z,99010.23
2022-12-03T03:51:32.191Z,99014.48
2022-12-03T03:58:16.420Z,99012.77
2022-12-03T04:04:59.644Z,99010.42
2022-12-03T04:11:41.354Z,99012.10
2022-12-03T04:18:09.791Z,99016.59
2022-12-03T04:24:53.188Z,99021.71
2022-12-03T04:31:34.884Z,99019.83
2022-12-03T04:38:18.086Z,99015.55
2022-12-03T04:45:03.233Z,99014.86
2022-12-03T04:51:53.399Z,99016.23
2022-12-03T04:58:39.373Z,99008.96
2022-12-03T05:05:30.076Z,99000.11
2022-12-03T05:12:16.589Z,98986.71
2022-12-03T05:19:07.061Z,98997.58
2022-12-03T05:26:00.082Z,98996.77
2022-12-03T05:32:43.356Z,98991.30
2022-12-03T05:39:27.694Z,98992.96
2022-12-03T05:46:13.662Z,98998.54
2022-12-03T05:52:58.783Z,98998.21
2022-12-03T06:26:26.307Z,99003.08
2022-12-03T06:33:09.449Z,99010.15
2022-12-03T06:39:55.184Z,99018.55
2022-12-03T06:46:39.739Z,99023.04
2022-12-03T06:53:24.072Z,99032.03
2022-12-03T06:59:51.423Z,99040.35
2022-12-03T07:06:34.920Z,99043.69
2022-12-03T07:13:20.528Z,99036.64
2022-12-03T07:20:04.164Z,99030.78
2022-12-03T07:26:50.942Z,99035.34
2022-12-03T07:33:34.784Z,99041.40
2022-12-03T07:40:19.481Z,99042.75
2022-12-03T07:47:03.855Z,99039.50
2022-12-03T07:53:49.620Z,99039.23
2022-12-03T08:00:32.722Z,99036.25
2022-12-03T08:07:16.010Z,99034.21
2022-12-03T08:14:02.410Z,99030.77
2022-12-03T08:20:51.144Z,99026.77
2022-12-03T08:27:34.126Z,99031.05
2022-12-03T08:34:17.186Z,99022.83
2022-12-03T08:41:00.486Z,99031.27
2022-12-03T08:47:52.393Z,99042.56
2022-12-03T09:28:09.789Z,99048.71
2022-12-03T09:34:53.197Z,99045.34
2022-12-03T09:41:41.610Z,99051.84
2022-12-03T09:48:27.763Z,99052.56
2022-12-03T09:55:16.482Z,99048.02
2022-12-03T10:01:59.616Z,99038.60
2022-12-03T10:08:46.101Z,99032.53
2022-12-03T10:15:32.518Z,99032.96
2022-12-03T10:22:24.379Z,99013.08
2022-12-03T10:29:17.469Z,99020.26
2022-12-03T10:36:20.790Z,99023.07
2022-12-03T10:43:17.577Z,99014.79
2022-12-03T10:50:14.114Z,99019.30
2022-12-03T10:57:01.391Z,99005.49
2022-12-03T11:03:45.136Z,98999.80
2022-12-03T11:10:30.264Z,98996.44
2022-12-03T11:17:24.372Z,98996.84
2022-12-03T11:31:14.921Z,98994.65
2022-12-03T12:33:10.971Z,98954.41
2022-12-03T12:39:57.491Z,98955.23
2022-12-03T12:46:51.626Z,98948.14
2022-12-03T12:53:35.181Z,98937.96
2022-12-03T13:00:25.642Z,98946.02
2022-12-03T13:07:11.401Z,98944.97
2022-12-03T13:14:02.422Z,98947.69
2022-12-03T13:20:57.594Z,98946.45
2022-12-03T13:28:00.375Z,98952.23
2022-12-03T13:34:45.819Z,98948.41
2022-12-03T13:48:11.844Z,98956.90
2022-12-03T13:55:15.656Z,98952.79
2022-12-03T14:02:05.412Z,98939.16
2022-12-03T14:08:52.170Z,98931.13
2022-12-03T14:15:36.053Z,98933.20
2022-12-03T14:22:19.822Z,98932.55
2022-12-03T14:29:08.605Z,98946.39
2022-12-03T14:35:57.201Z,98939.30
2022-12-03T14:42:42.282Z,98937.79
2022-12-03T14:49:25.371Z,98935.93
2022-12-03T14:56:09.116Z,98948.98
2022-12-03T15:02:52.835Z,98946.02
2022-12-03T15:09:36.529Z,98948.90
2022-12-03T15:16:23.850Z,98950.02
2022-12-03T15:23:11.243Z,98943.55
2022-12-03T15:30:01.317Z,98947.56
2022-12-03T15:36:47.204Z,98953.05
2022-12-03T15:43:33.402Z,98946.98
2022-12-03T15:50:16.682Z,98949.02
2022-12-03T15:57:01.548Z,98947.07
2022-12-03T16:03:48.330Z,98945.80
2022-12-03T16:10:31.199Z,98949.95
2022-12-03T16:17:14.720Z,98941.10
2022-12-03T16:24:05.882Z,98940.11
2022-12-03T16:30:49.187Z,98947.51
2022-12-03T16:37:32.794Z,98940.69
2022-12-03T16:44:17.083Z,98939.94
2022-12-03T16:51:03.310Z,98936.45
2022-12-03T16:57:46.985Z,98932.84
2022-12-03T17:04:30.180Z,98938.21
2022-12-03T17:11:15.176Z,98933.83
2022-12-03T17:18:04.478Z,98934.30
2022-12-03T17:24:48.795Z,98925.86
2022-12-03T17:31:41.428Z,98915.67
2022-12-03T17:38:27.754Z,98912.36
2022-12-03T17:45:12.726Z,98915.52
2022-12-03T17:51:56.321Z,98924.81
2022-12-03T17:58:39.861Z,98921.09
2022-12-03T18:05:22.808Z,98918.86
2022-12-03T18:12:06.393Z,98901.48
2022-12-03T18:18:53.754Z,98900.42
2022-12-03T18:25:41.767Z,98899.75
2022-12-03T18:32:29.320Z,98894.56
2022-12-03T18:39:15.542Z,98893.60
2022-12-03T18:45:59.048Z,98896.48
2022-12-03T18:52:47.321Z,98897.10
2022-12-03T18:59:30.538Z,98895.69
2022-12-03T19:06:17.227Z,98888.11
2022-12-03T19:13:02.717Z,98889.61
2022-12-03T19:19:46.865Z,98886.69
2022-12-03T19:26:37.298Z,98888.52
2022-12-03T19:33:28.242Z,98889.93
2022-12-03T19:40:11.877Z,98893.42
2022-12-03T19:46:56.361Z,98892.39
2022-12-03T19:53:41.301Z,98890.50
2022-12-03T19:59:44.811Z,98889.80
2022-12-03T20:06:08.140Z,98888.99
2022-12-03T20:12:02.597Z,98892.60
2022-12-03T20:18:10.550Z,98885.27
2022-12-03T20:24:08.584Z,98889.63
2022-12-03T20:30:51.613Z,98883.13
2022-12-03T20:37:34.227Z,98885.48
2022-12-03T20:44:22.328Z,98878.57
2022-12-03T20:50:46.686Z,98873.83
2022-12-03T20:57:17.397Z,98882.93
2022-12-03T21:03:50.514Z,98886.16
2022-12-03T21:10:33.287Z,98888.39
2022-12-03T21:17:09.545Z,98888.81
2022-12-03T21:23:52.055Z,98886.23
2022-12-03T21:30:35.747Z,98898.41
2022-12-03T21:37:17.762Z,98893.73
2022-12-03T21:44:00.392Z,98883.02
2022-12-03T21:50:22.756Z,98881.71
2022-12-03T21:56:49.092Z,98879.20
2022-12-03T22:03:39.644Z,98880.25
2022-12-03T22:10:23.913Z,98877.33
2022-12-03T22:17:06.897Z,98872.38
2022-12-03T22:23:49.864Z,98865.99
2022-12-03T22:30:32.360Z,98858.94
2022-12-03T22:37:15.601Z,98858.55
2022-12-03T22:43:58.988Z,98865.11
2022-12-03T22:50:42.422Z,98855.23
2022-12-03T22:57:25.194Z,98854.35
2022-12-03T23:04:08.422Z,98847.48
2022-12-03T23:10:54.683Z,98841.27
2022-12-03T23:17:38.025Z,98844.17
2022-12-03T23:24:20.957Z,98826.54
2022-12-03T23:31:03.991Z,98832.04
2022-12-03T23:37:47.023Z,98828.92
2022-12-03T23:44:30.197Z,98826.13
2022-12-03T23:51:19.135Z,98829.40
2022-12-03T23:58:02.433Z,98826.66
